sensor_id;sensor_type;location;lat;lon;timestamp;P1;durP1;ratioP1;P2;durP2;ratioP2
4112;SDS011;2070;51.042;7.056;2022-07-01T00:01:59;18.43;;;5.57;;
4112;SDS011;2070;51.042;7.056;2022-07-01T00:04:24;10.40;;;5.27;;
4112;SDS011;2070;51.042;7.056;2022-07-01T00:06:52;14.03;;;6.27;;
4112;SDS011;2070;51.042;7.056;2022-07-01T00:09:17;11.13;;;5.87;;
4112;SDS011;2070;51.042;7.056;2022-07-01T00:11:42;12.70;;;6.23;;
4112;SDS011;2070;51.042;7.056;2022-07-01T00:14:08;10.33;;;5.77;;
4112;SDS011;2070;51.042;7.056;2022-07-01T00:16:33;10.63;;;6.13;;
4112;SDS011;2070;51.042;7.056;2022-07-01T00:18:58;13.90;;;6.90;;
4112;SDS011;2070;51.042;7.056;2022-07-01T00:21:23;15.07;;;6.80;;
4112;SDS011;2070;51.042;7.056;2022-07-01T00:23:48;8.60;;;5.90;;
4112;SDS011;2070;51.042;7.056;2022-07-01T00:26:14;9.77;;;6.43;;
4112;SDS011;2070;51.042;7.056;2022-07-01T00:28:39;11.00;;;6.37;;
4112;SDS011;2070;51.042;7.056;2022-07-01T00:31:04;12.97;;;5.90;;
4112;SDS011;2070;51.042;7.056;2022-07-01T00:33:29;12.10;;;5.40;;
4112;SDS011;2070;51.042;7.056;2022-07-01T00:35:55;15.60;;;6.60;;
4112;SDS011;2070;51.042;7.056;2022-07-01T00:38:20;20.07;;;7.27;;
4112;SDS011;2070;51.042;7.056;2022-07-01T00:40:51;14.40;;;7.10;;
4112;SDS011;2070;51.042;7.056;2022-07-01T00:43:16;11.53;;;6.50;;
4112;SDS011;2070;51.042;7.056;2022-07-01T00:45:47;13.67;;;6.27;;
4112;SDS011;2070;51.042;7.056;2022-07-01T00:48:13;17.70;;;7.80;;
4112;SDS011;2070;51.042;7.056;2022-07-01T00:50:38;11.27;;;7.10;;
4112;SDS011;2070;51.042;7.056;2022-07-01T00:53:04;11.23;;;7.20;;
4112;SDS011;2070;51.042;7.056;2022-07-01T00:55:29;8.90;;;5.20;;
4112;SDS011;2070;51.042;7.056;2022-07-01T00:57:55;10.40;;;6.40;;
4112;SDS011;2070;51.042;7.056;2022-07-01T01:00:20;12.67;;;6.33;;
4112;SDS011;2070;51.042;7.056;2022-07-01T01:02:51;9.73;;;6.30;;
4112;SDS011;2070;51.042;7.056;2022-07-01T01:05:16;8.90;;;5.57;;
4112;SDS011;2070;51.042;7.056;2022-07-01T01:07:43;9.47;;;6.10;;
4112;SDS011;2070;51.042;7.056;2022-07-01T01:10:08;9.33;;;5.83;;
4112;SDS011;2070;51.042;7.056;2022-07-01T01:12:34;10.70;;;5.77;;
4112;SDS011;2070;51.042;7.056;2022-07-01T01:14:59;9.50;;;5.97;;
4112;SDS011;2070;51.042;7.056;2022-07-01T01:17:24;11.87;;;5.10;;
4112;SDS011;2070;51.042;7.056;2022-07-01T01:19:51;13.67;;;6.40;;
4112;SDS011;2070;51.042;7.056;2022-07-01T01:22:16;15.97;;;5.10;;
4112;SDS011;2070;51.042;7.056;2022-07-01T01:24:42;14.17;;;5.50;;
4112;SDS011;2070;51.042;7.056;2022-07-01T01:27:07;9.07;;;5.57;;
4112;SDS011;2070;51.042;7.056;2022-07-01T01:29:34;10.03;;;5.27;;
4112;SDS011;2070;51.042;7.056;2022-07-01T01:31:59;11.90;;;5.70;;
4112;SDS011;2070;51.042;7.056;2022-07-01T01:34:25;13.27;;;6.87;;
4112;SDS011;2070;51.042;7.056;2022-07-01T01:36:51;12.60;;;6.10;;
4112;SDS011;2070;51.042;7.056;2022-07-01T01:39:16;11.50;;;7.07;;
4112;SDS011;2070;51.042;7.056;2022-07-01T01:41:42;11.27;;;5.60;;
4112;SDS011;2070;51.042;7.056;2022-07-01T01:44:07;12.93;;;5.60;;
4112;SDS011;2070;51.042;7.056;2022-07-01T01:46:32;12.40;;;5.77;;
4112;SDS011;2070;51.042;7.056;2022-07-01T01:48:58;9.40;;;5.90;;
4112;SDS011;2070;51.042;7.056;2022-07-01T01:51:23;20.70;;;7.10;;
4112;SDS011;2070;51.042;7.056;2022-07-01T01:53:48;18.60;;;8.53;;
4112;SDS011;2070;51.042;7.056;2022-07-01T01:56:14;16.43;;;7.70;;
4112;SDS011;2070;51.042;7.056;2022-07-01T01:58:39;18.57;;;6.40;;
4112;SDS011;2070;51.042;7.056;2022-07-01T02:01:08;14.70;;;8.43;;
4112;SDS011;2070;51.042;7.056;2022-07-01T02:03:33;20.50;;;7.37;;
4112;SDS011;2070;51.042;7.056;2022-07-01T02:05:58;10.00;;;6.23;;
4112;SDS011;2070;51.042;7.056;2022-07-01T02:08:24;13.10;;;7.03;;
4112;SDS011;2070;51.042;7.056;2022-07-01T02:10:49;16.43;;;6.60;;
4112;SDS011;2070;51.042;7.056;2022-07-01T02:13:14;10.70;;;6.43;;
4112;SDS011;2070;51.042;7.056;2022-07-01T02:15:39;11.67;;;5.90;;
4112;SDS011;2070;51.042;7.056;2022-07-01T02:18:05;10.73;;;6.30;;
4112;SDS011;2070;51.042;7.056;2022-07-01T02:20:30;10.17;;;5.40;;
4112;SDS011;2070;51.042;7.056;2022-07-01T02:22:56;17.37;;;7.27;;
4112;SDS011;2070;51.042;7.056;2022-07-01T02:25:21;10.53;;;7.00;;
4112;SDS011;2070;51.042;7.056;2022-07-01T02:27:46;13.73;;;7.30;;
4112;SDS011;2070;51.042;7.056;2022-07-01T02:30:11;15.57;;;6.60;;
4112;SDS011;2070;51.042;7.056;2022-07-01T02:32:37;17.37;;;7.27;;
4112;SDS011;2070;51.042;7.056;2022-07-01T02:35:02;11.97;;;6.77;;
4112;SDS011;2070;51.042;7.056;2022-07-01T02:37:28;18.10;;;6.37;;
4112;SDS011;2070;51.042;7.056;2022-07-01T02:39:53;15.53;;;6.03;;
4112;SDS011;2070;51.042;7.056;2022-07-01T02:42:18;8.47;;;4.23;;
4112;SDS011;2070;51.042;7.056;2022-07-01T02:44:51;9.37;;;6.00;;
4112;SDS011;2070;51.042;7.056;2022-07-01T02:47:16;12.43;;;5.80;;
4112;SDS011;2070;51.042;7.056;2022-07-01T02:49:41;5.80;;;4.60;;
4112;SDS011;2070;51.042;7.056;2022-07-01T02:52:07;8.40;;;5.70;;
4112;SDS011;2070;51.042;7.056;2022-07-01T02:54:32;12.20;;;5.23;;
4112;SDS011;2070;51.042;7.056;2022-07-01T02:56:57;6.93;;;5.30;;
4112;SDS011;2070;51.042;7.056;2022-07-01T02:59:22;10.63;;;5.80;;
4112;SDS011;2070;51.042;7.056;2022-07-01T03:01:48;5.57;;;4.77;;
4112;SDS011;2070;51.042;7.056;2022-07-01T03:04:13;14.90;;;4.17;;
4112;SDS011;2070;51.042;7.056;2022-07-01T03:06:38;25.53;;;5.47;;
4112;SDS011;2070;51.042;7.056;2022-07-01T03:09:03;5.07;;;4.30;;
4112;SDS011;2070;51.042;7.056;2022-07-01T03:11:30;15.33;;;6.40;;
4112;SDS011;2070;51.042;7.056;2022-07-01T03:13:55;13.43;;;6.10;;
4112;SDS011;2070;51.042;7.056;2022-07-01T03:16:20;7.50;;;4.50;;
4112;SDS011;2070;51.042;7.056;2022-07-01T03:18:45;9.10;;;4.17;;
4112;SDS011;2070;51.042;7.056;2022-07-01T03:21:11;8.00;;;4.20;;
4112;SDS011;2070;51.042;7.056;2022-07-01T03:23:36;8.20;;;3.37;;
4112;SDS011;2070;51.042;7.056;2022-07-01T03:26:01;11.53;;;3.23;;
4112;SDS011;2070;51.042;7.056;2022-07-01T03:28:26;6.67;;;4.07;;
4112;SDS011;2070;51.042;7.056;2022-07-01T03:30:51;16.40;;;2.87;;
4112;SDS011;2070;51.042;7.056;2022-07-01T03:33:17;6.50;;;3.17;;
4112;SDS011;2070;51.042;7.056;2022-07-01T03:35:42;7.53;;;3.90;;
4112;SDS011;2070;51.042;7.056;2022-07-01T03:38:10;15.93;;;4.40;;
4112;SDS011;2070;51.042;7.056;2022-07-01T03:40:36;4.37;;;3.40;;
4112;SDS011;2070;51.042;7.056;2022-07-01T03:43:01;5.37;;;2.77;;
4112;SDS011;2070;51.042;7.056;2022-07-01T03:45:27;5.27;;;3.20;;
4112;SDS011;2070;51.042;7.056;2022-07-01T03:47:52;2.60;;;2.17;;
4112;SDS011;2070;51.042;7.056;2022-07-01T03:50:18;6.20;;;3.20;;
4112;SDS011;2070;51.042;7.056;2022-07-01T03:52:45;3.20;;;2.87;;
4112;SDS011;2070;51.042;7.056;2022-07-01T03:55:10;4.10;;;2.83;;
4112;SDS011;2070;51.042;7.056;2022-07-01T03:57:35;4.67;;;2.43;;
4112;SDS011;2070;51.042;7.056;2022-07-01T04:00:01;3.90;;;3.10;;
4112;SDS011;2070;51.042;7.056;2022-07-01T04:02:26;3.13;;;2.90;;
4112;SDS011;2070;51.042;7.056;2022-07-01T04:04:51;2.70;;;2.50;;
4112;SDS011;2070;51.042;7.056;2022-07-01T04:07:17;4.07;;;2.97;;
4112;SDS011;2070;51.042;7.056;2022-07-01T04:09:42;6.00;;;2.90;;
4112;SDS011;2070;51.042;7.056;2022-07-01T04:12:08;2.73;;;2.10;;
4112;SDS011;2070;51.042;7.056;2022-07-01T04:14:34;4.83;;;2.90;;
4112;SDS011;2070;51.042;7.056;2022-07-01T04:16:59;4.00;;;2.70;;
4112;SDS011;2070;51.042;7.056;2022-07-01T04:19:24;4.93;;;2.20;;
4112;SDS011;2070;51.042;7.056;2022-07-01T04:21:49;6.47;;;1.73;;
4112;SDS011;2070;51.042;7.056;2022-07-01T04:24:33;4.03;;;2.30;;
4112;SDS011;2070;51.042;7.056;2022-07-01T04:26:59;2.13;;;1.93;;
4112;SDS011;2070;51.042;7.056;2022-07-01T04:29:25;8.70;;;1.53;;
4112;SDS011;2070;51.042;7.056;2022-07-01T04:31:50;3.40;;;2.10;;
4112;SDS011;2070;51.042;7.056;2022-07-01T04:34:15;3.20;;;2.13;;
4112;SDS011;2070;51.042;7.056;2022-07-01T04:36:41;11.83;;;1.70;;
4112;SDS011;2070;51.042;7.056;2022-07-01T04:39:06;3.90;;;2.10;;
4112;SDS011;2070;51.042;7.056;2022-07-01T04:41:32;5.57;;;2.03;;
4112;SDS011;2070;51.042;7.056;2022-07-01T04:44:16;3.37;;;1.83;;
4112;SDS011;2070;51.042;7.056;2022-07-01T04:46:41;2.87;;;2.17;;
4112;SDS011;2070;51.042;7.056;2022-07-01T04:49:06;2.67;;;2.23;;
4112;SDS011;2070;51.042;7.056;2022-07-01T04:51:32;2.23;;;1.60;;
4112;SDS011;2070;51.042;7.056;2022-07-01T04:53:59;3.50;;;1.73;;
4112;SDS011;2070;51.042;7.056;2022-07-01T04:56:24;3.27;;;2.07;;
4112;SDS011;2070;51.042;7.056;2022-07-01T04:58:51;10.63;;;1.77;;
4112;SDS011;2070;51.042;7.056;2022-07-01T05:01:17;3.53;;;1.43;;
4112;SDS011;2070;51.042;7.056;2022-07-01T05:03:42;1.80;;;1.37;;
4112;SDS011;2070;51.042;7.056;2022-07-01T05:06:07;4.37;;;2.87;;
4112;SDS011;2070;51.042;7.056;2022-07-01T05:08:32;3.87;;;2.20;;
4112;SDS011;2070;51.042;7.056;2022-07-01T05:10:58;5.47;;;1.80;;
4112;SDS011;2070;51.042;7.056;2022-07-01T05:13:23;7.10;;;1.53;;
4112;SDS011;2070;51.042;7.056;2022-07-01T05:15:48;2.63;;;1.47;;
4112;SDS011;2070;51.042;7.056;2022-07-01T05:18:13;7.80;;;2.03;;
4112;SDS011;2070;51.042;7.056;2022-07-01T05:20:57;2.70;;;1.90;;
4112;SDS011;2070;51.042;7.056;2022-07-01T05:23:41;5.70;;;1.80;;
4112;SDS011;2070;51.042;7.056;2022-07-01T05:26:06;3.63;;;1.70;;
4112;SDS011;2070;51.042;7.056;2022-07-01T05:28:31;4.03;;;1.80;;
4112;SDS011;2070;51.042;7.056;2022-07-01T05:30:57;2.00;;;1.67;;
4112;SDS011;2070;51.042;7.056;2022-07-01T05:33:22;3.37;;;1.97;;
4112;SDS011;2070;51.042;7.056;2022-07-01T05:35:51;7.93;;;1.80;;
4112;SDS011;2070;51.042;7.056;2022-07-01T05:38:16;2.73;;;1.83;;
4112;SDS011;2070;51.042;7.056;2022-07-01T05:40:41;4.30;;;1.77;;
4112;SDS011;2070;51.042;7.056;2022-07-01T05:43:06;5.60;;;2.30;;
4112;SDS011;2070;51.042;7.056;2022-07-01T05:45:32;1.73;;;1.60;;
4112;SDS011;2070;51.042;7.056;2022-07-01T05:47:57;2.80;;;2.03;;
4112;SDS011;2070;51.042;7.056;2022-07-01T05:50:23;10.90;;;2.50;;
4112;SDS011;2070;51.042;7.056;2022-07-01T05:52:48;6.30;;;2.23;;
4112;SDS011;2070;51.042;7.056;2022-07-01T05:55:14;4.00;;;2.43;;
4112;SDS011;2070;51.042;7.056;2022-07-01T05:57:39;2.70;;;2.50;;
4112;SDS011;2070;51.042;7.056;2022-07-01T06:00:04;7.23;;;2.23;;
4112;SDS011;2070;51.042;7.056;2022-07-01T06:02:30;6.13;;;1.90;;
4112;SDS011;2070;51.042;7.056;2022-07-01T06:04:55;6.57;;;2.03;;
4112;SDS011;2070;51.042;7.056;2022-07-01T06:07:20;7.00;;;1.60;;
4112;SDS011;2070;51.042;7.056;2022-07-01T06:09:45;2.90;;;2.23;;
4112;SDS011;2070;51.042;7.056;2022-07-01T06:12:11;3.00;;;2.53;;
4112;SDS011;2070;51.042;7.056;2022-07-01T06:14:36;12.57;;;2.80;;
4112;SDS011;2070;51.042;7.056;2022-07-01T06:17:02;5.57;;;2.13;;
4112;SDS011;2070;51.042;7.056;2022-07-01T06:19:28;3.20;;;2.37;;
4112;SDS011;2070;51.042;7.056;2022-07-01T06:21:53;5.00;;;1.90;;
4112;SDS011;2070;51.042;7.056;2022-07-01T06:24:18;4.27;;;1.80;;
4112;SDS011;2070;51.042;7.056;2022-07-01T06:26:43;4.30;;;1.77;;
4112;SDS011;2070;51.042;7.056;2022-07-01T06:29:08;2.07;;;1.90;;
4112;SDS011;2070;51.042;7.056;2022-07-01T06:31:34;3.60;;;1.97;;
4112;SDS011;2070;51.042;7.056;2022-07-01T06:33:59;6.90;;;2.40;;
4112;SDS011;2070;51.042;7.056;2022-07-01T06:36:24;9.90;;;2.03;;
4112;SDS011;2070;51.042;7.056;2022-07-01T06:38:49;10.03;;;1.60;;
4112;SDS011;2070;51.042;7.056;2022-07-01T06:41:15;8.27;;;2.07;;
4112;SDS011;2070;51.042;7.056;2022-07-01T06:43:56;10.80;;;2.00;;
4112;SDS011;2070;51.042;7.056;2022-07-01T06:46:21;3.53;;;2.17;;
4112;SDS011;2070;51.042;7.056;2022-07-01T06:48:47;9.83;;;1.90;;
4112;SDS011;2070;51.042;7.056;2022-07-01T06:51:12;10.30;;;4.30;;
4112;SDS011;2070;51.042;7.056;2022-07-01T06:53:37;6.43;;;3.47;;
4112;SDS011;2070;51.042;7.056;2022-07-01T06:56:03;13.40;;;4.03;;
4112;SDS011;2070;51.042;7.056;2022-07-01T06:58:28;9.87;;;3.47;;
4112;SDS011;2070;51.042;7.056;2022-07-01T07:00:53;7.97;;;2.17;;
4112;SDS011;2070;51.042;7.056;2022-07-01T07:03:18;10.33;;;3.00;;
4112;SDS011;2070;51.042;7.056;2022-07-01T07:05:44;12.17;;;2.90;;
4112;SDS011;2070;51.042;7.056;2022-07-01T07:08:09;10.23;;;3.30;;
4112;SDS011;2070;51.042;7.056;2022-07-01T07:10:34;5.03;;;2.03;;
4112;SDS011;2070;51.042;7.056;2022-07-01T07:12:59;14.60;;;3.97;;
4112;SDS011;2070;51.042;7.056;2022-07-01T07:15:25;7.53;;;2.40;;
4112;SDS011;2070;51.042;7.056;2022-07-01T07:17:50;10.37;;;2.10;;
4112;SDS011;2070;51.042;7.056;2022-07-01T07:20:15;6.20;;;2.33;;
4112;SDS011;2070;51.042;7.056;2022-07-01T07:22:40;10.50;;;3.50;;
4112;SDS011;2070;51.042;7.056;2022-07-01T07:25:06;7.73;;;2.93;;
4112;SDS011;2070;51.042;7.056;2022-07-01T07:27:31;5.87;;;2.73;;
4112;SDS011;2070;51.042;7.056;2022-07-01T07:29:56;7.77;;;2.97;;
4112;SDS011;2070;51.042;7.056;2022-07-01T07:32:21;5.60;;;2.77;;
4112;SDS011;2070;51.042;7.056;2022-07-01T07:34:46;11.70;;;4.30;;
4112;SDS011;2070;51.042;7.056;2022-07-01T07:37:12;13.67;;;3.90;;
4112;SDS011;2070;51.042;7.056;2022-07-01T07:39:37;13.77;;;3.40;;
4112;SDS011;2070;51.042;7.056;2022-07-01T07:42:03;12.30;;;4.57;;
4112;SDS011;2070;51.042;7.056;2022-07-01T07:44:29;12.13;;;3.47;;
4112;SDS011;2070;51.042;7.056;2022-07-01T07:46:54;34.17;;;4.00;;
4112;SDS011;2070;51.042;7.056;2022-07-01T07:49:19;13.13;;;3.60;;
4112;SDS011;2070;51.042;7.056;2022-07-01T07:51:45;7.37;;;3.00;;
4112;SDS011;2070;51.042;7.056;2022-07-01T07:54:10;11.53;;;3.57;;
4112;SDS011;2070;51.042;7.056;2022-07-01T07:56:35;6.90;;;3.53;;
4112;SDS011;2070;51.042;7.056;2022-07-01T07:59:00;11.80;;;2.90;;
4112;SDS011;2070;51.042;7.056;2022-07-01T08:01:25;8.73;;;3.97;;
4112;SDS011;2070;51.042;7.056;2022-07-01T08:03:51;10.03;;;3.77;;
4112;SDS011;2070;51.042;7.056;2022-07-01T08:06:16;4.30;;;2.67;;
4112;SDS011;2070;51.042;7.056;2022-07-01T08:08:41;4.20;;;2.73;;
4112;SDS011;2070;51.042;7.056;2022-07-01T08:11:06;8.17;;;3.03;;
4112;SDS011;2070;51.042;7.056;2022-07-01T08:13:32;3.77;;;2.70;;
4112;SDS011;2070;51.042;7.056;2022-07-01T08:15:57;4.33;;;2.53;;
4112;SDS011;2070;51.042;7.056;2022-07-01T08:18:22;5.90;;;3.00;;
4112;SDS011;2070;51.042;7.056;2022-07-01T08:20:48;5.50;;;3.07;;
4112;SDS011;2070;51.042;7.056;2022-07-01T08:23:17;3.73;;;2.93;;
4112;SDS011;2070;51.042;7.056;2022-07-01T08:25:42;7.23;;;3.40;;
4112;SDS011;2070;51.042;7.056;2022-07-01T08:28:07;9.43;;;3.03;;
4112;SDS011;2070;51.042;7.056;2022-07-01T08:30:33;11.23;;;3.57;;
4112;SDS011;2070;51.042;7.056;2022-07-01T08:32:58;10.87;;;4.00;;
4112;SDS011;2070;51.042;7.056;2022-07-01T08:35:23;20.80;;;3.90;;
4112;SDS011;2070;51.042;7.056;2022-07-01T08:37:48;18.43;;;2.90;;
4112;SDS011;2070;51.042;7.056;2022-07-01T08:40:14;9.00;;;2.73;;
4112;SDS011;2070;51.042;7.056;2022-07-01T08:42:39;8.17;;;2.50;;
4112;SDS011;2070;51.042;7.056;2022-07-01T08:45:05;8.20;;;3.00;;
4112;SDS011;2070;51.042;7.056;2022-07-01T08:47:30;7.47;;;2.60;;
4112;SDS011;2070;51.042;7.056;2022-07-01T08:49:55;7.00;;;2.53;;
4112;SDS011;2070;51.042;7.056;2022-07-01T08:52:24;10.53;;;3.37;;
4112;SDS011;2070;51.042;7.056;2022-07-01T08:54:49;3.30;;;2.03;;
4112;SDS011;2070;51.042;7.056;2022-07-01T08:57:14;9.13;;;3.30;;
4112;SDS011;2070;51.042;7.056;2022-07-01T08:59:44;7.70;;;3.00;;
4112;SDS011;2070;51.042;7.056;2022-07-01T09:02:10;8.93;;;2.93;;
4112;SDS011;2070;51.042;7.056;2022-07-01T09:04:35;8.17;;;3.60;;
4112;SDS011;2070;51.042;7.056;2022-07-01T09:07:02;5.47;;;3.00;;
4112;SDS011;2070;51.042;7.056;2022-07-01T09:09:28;13.10;;;3.77;;
4112;SDS011;2070;51.042;7.056;2022-07-01T09:11:54;11.80;;;2.97;;
4112;SDS011;2070;51.042;7.056;2022-07-01T09:14:23;6.70;;;2.20;;
4112;SDS011;2070;51.042;7.056;2022-07-01T09:16:50;11.13;;;3.50;;
4112;SDS011;2070;51.042;7.056;2022-07-01T09:19:16;8.13;;;3.27;;
4112;SDS011;2070;51.042;7.056;2022-07-01T09:21:42;10.43;;;2.23;;
4112;SDS011;2070;51.042;7.056;2022-07-01T09:29:27;4.80;;;2.47;;
4112;SDS011;2070;51.042;7.056;2022-07-01T09:31:52;4.50;;;2.10;;
4112;SDS011;2070;51.042;7.056;2022-07-01T09:34:18;12.07;;;2.87;;
4112;SDS011;2070;51.042;7.056;2022-07-01T09:36:51;6.43;;;2.63;;
4112;SDS011;2070;51.042;7.056;2022-07-01T09:39:16;6.50;;;2.30;;
4112;SDS011;2070;51.042;7.056;2022-07-01T09:41:41;18.33;;;2.57;;
4112;SDS011;2070;51.042;7.056;2022-07-01T09:44:07;3.90;;;2.23;;
4112;SDS011;2070;51.042;7.056;2022-07-01T09:46:33;3.73;;;2.10;;
4112;SDS011;2070;51.042;7.056;2022-07-01T09:48:58;8.67;;;2.50;;
4112;SDS011;2070;51.042;7.056;2022-07-01T09:51:24;6.40;;;2.27;;
4112;SDS011;2070;51.042;7.056;2022-07-01T09:53:49;5.37;;;1.83;;
4112;SDS011;2070;51.042;7.056;2022-07-01T09:56:14;5.67;;;3.33;;
4112;SDS011;2070;51.042;7.056;2022-07-01T09:58:39;11.43;;;2.57;;
4112;SDS011;2070;51.042;7.056;2022-07-01T10:01:08;5.27;;;1.83;;
4112;SDS011;2070;51.042;7.056;2022-07-01T10:03:33;7.27;;;2.00;;
4112;SDS011;2070;51.042;7.056;2022-07-01T10:08:37;11.63;;;2.47;;
4112;SDS011;2070;51.042;7.056;2022-07-01T10:13:35;6.80;;;2.00;;
4112;SDS011;2070;51.042;7.056;2022-07-01T10:16:01;8.20;;;2.00;;
4112;SDS011;2070;51.042;7.056;2022-07-01T10:18:27;14.47;;;2.50;;
4112;SDS011;2070;51.042;7.056;2022-07-01T10:20:54;4.63;;;1.33;;
4112;SDS011;2070;51.042;7.056;2022-07-01T10:23:20;8.27;;;2.27;;
4112;SDS011;2070;51.042;7.056;2022-07-01T10:30:50;21.57;;;3.13;;
4112;SDS011;2070;51.042;7.056;2022-07-01T10:38:34;6.40;;;2.10;;
4112;SDS011;2070;51.042;7.056;2022-07-01T10:41:00;6.30;;;2.33;;
4112;SDS011;2070;51.042;7.056;2022-07-01T10:43:37;6.50;;;2.43;;
4112;SDS011;2070;51.042;7.056;2022-07-01T10:46:03;3.20;;;1.63;;
4112;SDS011;2070;51.042;7.056;2022-07-01T10:48:32;4.73;;;1.70;;
4112;SDS011;2070;51.042;7.056;2022-07-01T10:50:58;6.53;;;2.10;;
4112;SDS011;2070;51.042;7.056;2022-07-01T10:53:23;24.87;;;2.87;;
4112;SDS011;2070;51.042;7.056;2022-07-01T10:55:52;3.97;;;1.97;;
4112;SDS011;2070;51.042;7.056;2022-07-01T10:58:18;10.40;;;2.63;;
4112;SDS011;2070;51.042;7.056;2022-07-01T11:00:48;13.50;;;2.60;;
4112;SDS011;2070;51.042;7.056;2022-07-01T11:03:16;5.30;;;2.50;;
4112;SDS011;2070;51.042;7.056;2022-07-01T11:05:43;7.83;;;3.03;;
4112;SDS011;2070;51.042;7.056;2022-07-01T11:08:08;11.10;;;3.50;;
4112;SDS011;2070;51.042;7.056;2022-07-01T11:10:34;5.77;;;2.47;;
4112;SDS011;2070;51.042;7.056;2022-07-01T11:13:00;9.67;;;2.90;;
4112;SDS011;2070;51.042;7.056;2022-07-01T11:15:26;9.03;;;2.50;;
4112;SDS011;2070;51.042;7.056;2022-07-01T11:17:51;5.57;;;2.77;;
4112;SDS011;2070;51.042;7.056;2022-07-01T11:20:17;4.30;;;2.40;;
4112;SDS011;2070;51.042;7.056;2022-07-01T11:22:42;6.93;;;2.20;;
4112;SDS011;2070;51.042;7.056;2022-07-01T11:25:08;8.87;;;3.00;;
4112;SDS011;2070;51.042;7.056;2022-07-01T11:27:34;9.97;;;3.23;;
4112;SDS011;2070;51.042;7.056;2022-07-01T11:30:00;12.87;;;3.63;;
4112;SDS011;2070;51.042;7.056;2022-07-01T11:32:36;6.23;;;2.03;;
4112;SDS011;2070;51.042;7.056;2022-07-01T11:35:02;9.43;;;2.10;;
4112;SDS011;2070;51.042;7.056;2022-07-01T11:37:31;3.97;;;2.00;;
4112;SDS011;2070;51.042;7.056;2022-07-01T11:40:15;12.13;;;2.63;;
4112;SDS011;2070;51.042;7.056;2022-07-01T11:42:42;6.73;;;1.90;;
4112;SDS011;2070;51.042;7.056;2022-07-01T11:45:07;4.60;;;1.97;;
4112;SDS011;2070;51.042;7.056;2022-07-01T11:47:33;12.30;;;3.03;;
4112;SDS011;2070;51.042;7.056;2022-07-01T11:49:59;11.87;;;1.87;;
4112;SDS011;2070;51.042;7.056;2022-07-01T11:52:25;7.77;;;2.47;;
4112;SDS011;2070;51.042;7.056;2022-07-01T11:54:51;10.40;;;2.20;;
4112;SDS011;2070;51.042;7.056;2022-07-01T11:57:18;8.33;;;2.27;;
4112;SDS011;2070;51.042;7.056;2022-07-01T11:59:45;5.70;;;1.93;;
4112;SDS011;2070;51.042;7.056;2022-07-01T12:02:11;7.10;;;2.30;;
4112;SDS011;2070;51.042;7.056;2022-07-01T12:04:37;6.60;;;2.10;;
4112;SDS011;2070;51.042;7.056;2022-07-01T12:07:03;7.27;;;2.07;;
4112;SDS011;2070;51.042;7.056;2022-07-01T12:09:28;11.07;;;2.30;;
4112;SDS011;2070;51.042;7.056;2022-07-01T12:11:54;6.00;;;2.40;;
4112;SDS011;2070;51.042;7.056;2022-07-01T12:14:20;7.20;;;2.30;;
4112;SDS011;2070;51.042;7.056;2022-07-01T12:16:46;4.30;;;1.73;;
4112;SDS011;2070;51.042;7.056;2022-07-01T12:19:12;10.77;;;2.57;;
4112;SDS011;2070;51.042;7.056;2022-07-01T12:21:58;9.60;;;2.30;;
4112;SDS011;2070;51.042;7.056;2022-07-01T12:24:26;4.60;;;1.70;;
4112;SDS011;2070;51.042;7.056;2022-07-01T12:29:18;8.47;;;1.97;;
4112;SDS011;2070;51.042;7.056;2022-07-01T12:31:43;5.10;;;1.63;;
4112;SDS011;2070;51.042;7.056;2022-07-01T12:34:09;8.97;;;1.80;;
4112;SDS011;2070;51.042;7.056;2022-07-01T12:36:34;13.03;;;2.67;;
4112;SDS011;2070;51.042;7.056;2022-07-01T12:39:04;6.77;;;1.97;;
4112;SDS011;2070;51.042;7.056;2022-07-01T12:41:30;3.30;;;1.23;;
4112;SDS011;2070;51.042;7.056;2022-07-01T12:43:56;5.67;;;1.77;;
4112;SDS011;2070;51.042;7.056;2022-07-01T12:46:28;6.13;;;2.10;;
4112;SDS011;2070;51.042;7.056;2022-07-01T12:48:53;10.20;;;1.57;;
4112;SDS011;2070;51.042;7.056;2022-07-01T12:51:18;14.00;;;2.87;;
4112;SDS011;2070;51.042;7.056;2022-07-01T12:53:44;2.90;;;0.90;;
4112;SDS011;2070;51.042;7.056;2022-07-01T12:56:20;5.63;;;2.17;;
4112;SDS011;2070;51.042;7.056;2022-07-01T12:58:46;6.13;;;1.43;;
4112;SDS011;2070;51.042;7.056;2022-07-01T13:01:11;7.73;;;1.90;;
4112;SDS011;2070;51.042;7.056;2022-07-01T13:03:36;7.00;;;2.00;;
4112;SDS011;2070;51.042;7.056;2022-07-01T13:06:02;6.70;;;1.50;;
4112;SDS011;2070;51.042;7.056;2022-07-01T13:08:27;6.40;;;1.73;;
4112;SDS011;2070;51.042;7.056;2022-07-01T13:10:52;6.43;;;1.60;;
4112;SDS011;2070;51.042;7.056;2022-07-01T13:13:18;5.07;;;1.27;;
4112;SDS011;2070;51.042;7.056;2022-07-01T13:15:43;1.23;;;0.70;;
4112;SDS011;2070;51.042;7.056;2022-07-01T13:18:09;7.60;;;2.00;;
4112;SDS011;2070;51.042;7.056;2022-07-01T13:20:34;8.20;;;2.00;;
4112;SDS011;2070;51.042;7.056;2022-07-01T13:23:00;7.00;;;1.70;;
4112;SDS011;2070;51.042;7.056;2022-07-01T13:25:25;5.10;;;1.10;;
4112;SDS011;2070;51.042;7.056;2022-07-01T13:27:50;7.87;;;1.30;;
4112;SDS011;2070;51.042;7.056;2022-07-01T13:30:16;9.73;;;1.93;;
4112;SDS011;2070;51.042;7.056;2022-07-01T13:32:42;12.83;;;2.30;;
4112;SDS011;2070;51.042;7.056;2022-07-01T13:35:07;5.80;;;1.30;;
4112;SDS011;2070;51.042;7.056;2022-07-01T13:37:33;8.53;;;1.90;;
4112;SDS011;2070;51.042;7.056;2022-07-01T13:39:58;7.87;;;1.67;;
4112;SDS011;2070;51.042;7.056;2022-07-01T13:42:23;6.00;;;1.37;;
4112;SDS011;2070;51.042;7.056;2022-07-01T13:44:49;5.20;;;1.73;;
4112;SDS011;2070;51.042;7.056;2022-07-01T13:47:15;2.90;;;1.13;;
4112;SDS011;2070;51.042;7.056;2022-07-01T13:49:40;5.67;;;1.73;;
4112;SDS011;2070;51.042;7.056;2022-07-01T13:52:09;13.27;;;1.43;;
4112;SDS011;2070;51.042;7.056;2022-07-01T13:54:34;9.17;;;1.70;;
4112;SDS011;2070;51.042;7.056;2022-07-01T13:57:00;6.17;;;1.70;;
4112;SDS011;2070;51.042;7.056;2022-07-01T13:59:25;11.23;;;2.00;;
4112;SDS011;2070;51.042;7.056;2022-07-01T14:01:50;12.17;;;2.20;;
4112;SDS011;2070;51.042;7.056;2022-07-01T14:04:15;5.33;;;1.37;;
4112;SDS011;2070;51.042;7.056;2022-07-01T14:06:41;6.23;;;1.20;;
4112;SDS011;2070;51.042;7.056;2022-07-01T14:09:06;13.80;;;3.40;;
4112;SDS011;2070;51.042;7.056;2022-07-01T14:11:31;4.80;;;1.13;;
4112;SDS011;2070;51.042;7.056;2022-07-01T14:13:56;4.07;;;1.47;;
4112;SDS011;2070;51.042;7.056;2022-07-01T14:16:22;9.40;;;2.00;;
4112;SDS011;2070;51.042;7.056;2022-07-01T14:18:47;6.17;;;1.60;;
4112;SDS011;2070;51.042;7.056;2022-07-01T14:21:12;8.87;;;1.80;;
4112;SDS011;2070;51.042;7.056;2022-07-01T14:23:38;11.50;;;2.00;;
4112;SDS011;2070;51.042;7.056;2022-07-01T14:26:03;16.23;;;2.57;;
4112;SDS011;2070;51.042;7.056;2022-07-01T14:28:28;7.07;;;1.57;;
4112;SDS011;2070;51.042;7.056;2022-07-01T14:30:54;7.53;;;1.43;;
4112;SDS011;2070;51.042;7.056;2022-07-01T14:33:19;11.53;;;2.47;;
4112;SDS011;2070;51.042;7.056;2022-07-01T14:35:45;7.60;;;1.43;;
4112;SDS011;2070;51.042;7.056;2022-07-01T14:38:10;4.27;;;0.90;;
4112;SDS011;2070;51.042;7.056;2022-07-01T14:40:36;5.73;;;1.80;;
4112;SDS011;2070;51.042;7.056;2022-07-01T14:43:01;11.70;;;1.93;;
4112;SDS011;2070;51.042;7.056;2022-07-01T14:45:27;4.10;;;1.07;;
4112;SDS011;2070;51.042;7.056;2022-07-01T14:47:52;8.60;;;1.63;;
4112;SDS011;2070;51.042;7.056;2022-07-01T14:50:17;7.27;;;1.57;;
4112;SDS011;2070;51.042;7.056;2022-07-01T14:52:42;6.77;;;1.83;;
4112;SDS011;2070;51.042;7.056;2022-07-01T14:55:08;11.97;;;2.63;;
4112;SDS011;2070;51.042;7.056;2022-07-01T14:57:34;8.87;;;2.13;;
4112;SDS011;2070;51.042;7.056;2022-07-01T14:59:59;7.20;;;1.73;;
4112;SDS011;2070;51.042;7.056;2022-07-01T15:02:24;13.07;;;2.20;;
4112;SDS011;2070;51.042;7.056;2022-07-01T15:04:49;3.90;;;1.03;;
4112;SDS011;2070;51.042;7.056;2022-07-01T15:07:15;4.87;;;1.73;;
4112;SDS011;2070;51.042;7.056;2022-07-01T15:09:41;11.00;;;2.10;;
4112;SDS011;2070;51.042;7.056;2022-07-01T15:12:07;5.97;;;1.50;;
4112;SDS011;2070;51.042;7.056;2022-07-01T15:14:32;4.80;;;1.00;;
4112;SDS011;2070;51.042;7.056;2022-07-01T15:16:57;6.37;;;1.93;;
4112;SDS011;2070;51.042;7.056;2022-07-01T15:19:23;16.63;;;2.40;;
4112;SDS011;2070;51.042;7.056;2022-07-01T15:21:49;8.77;;;2.13;;
4112;SDS011;2070;51.042;7.056;2022-07-01T15:24:14;5.20;;;1.50;;
4112;SDS011;2070;51.042;7.056;2022-07-01T15:26:39;3.27;;;0.93;;